sensor_id;sensor_type;location;lat;lon;timestamp;temperature;humidity
66594;DHT22;53450;42.584;23.366;2022-12-16T00:01:08;3.60;89.87
66594;DHT22;53450;42.584;23.366;2022-12-16T00:03:35;3.60;90.20
66594;DHT22;53450;42.584;23.366;2022-12-16T00:06:02;3.61;89.89
66594;DHT22;53450;42.584;23.366;2022-12-16T00:08:31;3.50;89.70
66594;DHT22;53450;42.584;23.366;2022-12-16T00:10:58;3.38;89.93
66594;DHT22;53450;42.584;23.366;2022-12-16T00:13:24;3.44;90.10
66594;DHT22;53450;42.584;23.366;2022-12-16T00:15:50;3.43;89.89
66594;DHT22;53450;42.584;23.366;2022-12-16T00:18:16;3.44;90.06
66594;DHT22;53450;42.584;23.366;2022-12-16T00:20:50;3.40;90.09
66594;DHT22;53450;42.584;23.366;2022-12-16T00:23:15;3.45;90.18
66594;DHT22;53450;42.584;23.366;2022-12-16T00:25:43;3.26;90.10
66594;DHT22;53450;42.584;23.366;2022-12-16T00:28:10;3.37;90.09
66594;DHT22;53450;42.584;23.366;2022-12-16T00:30:36;3.36;89.62
66594;DHT22;53450;42.584;23.366;2022-12-16T00:33:02;3.33;89.90
66594;DHT22;53450;42.584;23.366;2022-12-16T00:35:30;3.31;90.08
66594;DHT22;53450;42.584;23.366;2022-12-16T00:37:56;3.40;90.18
66594;DHT22;53450;42.584;23.366;2022-12-16T00:40:26;3.43;90.31
66594;DHT22;53450;42.584;23.366;2022-12-16T00:43:00;3.47;90.47
66594;DHT22;53450;42.584;23.366;2022-12-16T00:45:54;3.47;90.50
66594;DHT22;53450;42.584;23.366;2022-12-16T00:51:02;3.67;90.69
66594;DHT22;53450;42.584;23.366;2022-12-16T00:53:28;3.91;91.19
66594;DHT22;53450;42.584;23.366;2022-12-16T00:56:20;3.94;90.85
66594;DHT22;53450;42.584;23.366;2022-12-16T00:58:45;3.85;90.77
66594;DHT22;53450;42.584;23.366;2022-12-16T01:01:12;4.05;90.94
66594;DHT22;53450;42.584;23.366;2022-12-16T01:03:38;4.15;90.75
66594;DHT22;53450;42.584;23.366;2022-12-16T01:06:13;4.12;90.92
66594;DHT22;53450;42.584;23.366;2022-12-16T01:08:39;4.36;91.27
66594;DHT22;53450;42.584;23.366;2022-12-16T01:11:04;4.30;90.40
66594;DHT22;53450;42.584;23.366;2022-12-16T01:13:30;4.33;90.32
66594;DHT22;53450;42.584;23.366;2022-12-16T01:16:00;4.32;90.31
66594;DHT22;53450;42.584;23.366;2022-12-16T01:18:25;4.28;89.98
66594;DHT22;53450;42.584;23.366;2022-12-16T01:20:51;4.30;90.22
66594;DHT22;53450;42.584;23.366;2022-12-16T01:23:17;4.39;90.67
66594;DHT22;53450;42.584;23.366;2022-12-16T01:25:42;4.42;90.08
66594;DHT22;53450;42.584;23.366;2022-12-16T01:28:08;4.39;90.17
66594;DHT22;53450;42.584;23.366;2022-12-16T01:30:34;4.34;90.03
66594;DHT22;53450;42.584;23.366;2022-12-16T01:32:59;4.23;90.09
66594;DHT22;53450;42.584;23.366;2022-12-16T01:35:25;4.33;90.20
66594;DHT22;53450;42.584;23.366;2022-12-16T01:37:51;4.28;90.09
66594;DHT22;53450;42.584;23.366;2022-12-16T01:40:18;4.32;90.04
66594;DHT22;53450;42.584;23.366;2022-12-16T01:42:45;4.33;90.18
66594;DHT22;53450;42.584;23.366;2022-12-16T01:45:30;4.50;90.70
66594;DHT22;53450;42.584;23.366;2022-12-16T01:48:01;4.42;90.42
66594;DHT22;53450;42.584;23.366;2022-12-16T01:50:28;4.44;90.56
66594;DHT22;53450;42.584;23.366;2022-12-16T01:52:56;4.44;90.64
66594;DHT22;53450;42.584;23.366;2022-12-16T01:55:26;4.40;89.96
66594;DHT22;53450;42.584;23.366;2022-12-16T01:58:00;4.22;89.26
66594;DHT22;53450;42.584;23.366;2022-12-16T02:00:27;4.16;89.61
66594;DHT22;53450;42.584;23.366;2022-12-16T02:02:54;4.06;89.77
66594;DHT22;53450;42.584;23.366;2022-12-16T02:05:20;3.98;89.76
66594;DHT22;53450;42.584;23.366;2022-12-16T02:08:20;4.02;89.86
66594;DHT22;53450;42.584;23.366;2022-12-16T02:10:55;3.94;89.61
66594;DHT22;53450;42.584;23.366;2022-12-16T02:22:13;3.94;90.23
66594;DHT22;53450;42.584;23.366;2022-12-16T02:39:24;3.86;90.28
66594;DHT22;53450;42.584;23.366;2022-12-16T02:42:03;3.89;90.08
66594;DHT22;53450;42.584;23.366;2022-12-16T02:47:09;3.84;90.00
66594;DHT22;53450;42.584;23.366;2022-12-16T02:49:44;3.84;90.13
66594;DHT22;53450;42.584;23.366;2022-12-16T02:52:35;3.88;90.32
66594;DHT22;53450;42.584;23.366;2022-12-16T02:55:03;3.99;90.39
66594;DHT22;53450;42.584;23.366;2022-12-16T03:05:15;4.05;89.92
66594;DHT22;53450;42.584;23.366;2022-12-16T03:07:44;3.99;89.89
66594;DHT22;53450;42.584;23.366;2022-12-16T03:10:14;4.33;90.73
66594;DHT22;53450;42.584;23.366;2022-12-16T03:12:43;4.37;90.49
66594;DHT22;53450;42.584;23.366;2022-12-16T03:15:11;4.42;90.11
66594;DHT22;53450;42.584;23.366;2022-12-16T03:17:38;4.44;90.22
66594;DHT22;53450;42.584;23.366;2022-12-16T03:20:29;4.29;89.86
66594;DHT22;53450;42.584;23.366;2022-12-16T03:22:59;4.39;90.34
66594;DHT22;53450;42.584;23.366;2022-12-16T03:25:28;4.39;90.59
66594;DHT22;53450;42.584;23.366;2022-12-16T03:28:02;4.30;89.98
66594;DHT22;53450;42.584;23.366;2022-12-16T03:30:41;4.25;90.12
66594;DHT22;53450;42.584;23.366;2022-12-16T03:33:38;4.22;90.14
66594;DHT22;53450;42.584;23.366;2022-12-16T03:36:09;4.05;89.93
66594;DHT22;53450;42.584;23.366;2022-12-16T03:38:37;3.98;90.24
66594;DHT22;53450;42.584;23.366;2022-12-16T03:41:05;4.03;90.24
66594;DHT22;53450;42.584;23.366;2022-12-16T03:43:31;3.99;90.21
66594;DHT22;53450;42.584;23.366;2022-12-16T03:46:01;3.91;90.05
66594;DHT22;53450;42.584;23.366;2022-12-16T03:48:27;3.81;90.08
66594;DHT22;53450;42.584;23.366;2022-12-16T03:50:53;3.77;90.35
66594;DHT22;53450;42.584;23.366;2022-12-16T03:53:18;3.81;90.41
66594;DHT22;53450;42.584;23.366;2022-12-16T03:55:44;3.79;90.28
66594;DHT22;53450;42.584;23.366;2022-12-16T03:58:09;3.85;90.40
66594;DHT22;53450;42.584;23.366;2022-12-16T04:00:35;3.82;90.46
66594;DHT22;53450;42.584;23.366;2022-12-16T04:03:01;3.94;90.58
66594;DHT22;53450;42.584;23.366;2022-12-16T04:05:26;3.82;90.08
66594;DHT22;53450;42.584;23.366;2022-12-16T04:07:52;3.79;90.22
66594;DHT22;53450;42.584;23.366;2022-12-16T04:10:17;3.88;90.49
66594;DHT22;53450;42.584;23.366;2022-12-16T04:13:08;4.02;90.50
66594;DHT22;53450;42.584;23.366;2022-12-16T04:15:53;4.13;90.69
66594;DHT22;53450;42.584;23.366;2022-12-16T04:18:39;4.19;90.43
66594;DHT22;53450;42.584;23.366;2022-12-16T04:21:23;4.17;90.36
66594;DHT22;53450;42.584;23.366;2022-12-16T04:24:15;4.17;90.40
66594;DHT22;53450;42.584;23.366;2022-12-16T04:26:46;4.13;90.19
66594;DHT22;53450;42.584;23.366;2022-12-16T04:29:44;4.09;89.86
66594;DHT22;53450;42.584;23.366;2022-12-16T04:32:29;4.05;90.26
66594;DHT22;53450;42.584;23.366;2022-12-16T04:35:18;3.96;90.45
66594;DHT22;53450;42.584;23.366;2022-12-16T04:38:03;3.95;90.53
66594;DHT22;53450;42.584;23.366;2022-12-16T04:40:47;3.95;90.56
66594;DHT22;53450;42.584;23.366;2022-12-16T04:43:31;3.85;90.07
66594;DHT22;53450;42.584;23.366;2022-12-16T04:46:16;3.86;90.28
66594;DHT22;53450;42.584;23.366;2022-12-16T04:49:00;3.85;90.23
66594;DHT22;53450;42.584;23.366;2022-12-16T04:51:45;3.82;90.49
66594;DHT22;53450;42.584;23.366;2022-12-16T04:54:29;3.85;90.37
66594;DHT22;53450;42.584;23.366;2022-12-16T04:57:13;3.95;90.42
66594;DHT22;53450;42.584;23.366;2022-12-16T04:59:57;4.03;90.57
66594;DHT22;53450;42.584;23.366;2022-12-16T05:02:41;4.01;90.33
66594;DHT22;53450;42.584;23.366;2022-12-16T05:05:25;3.81;89.85
66594;DHT22;53450;42.584;23.366;2022-12-16T05:08:10;3.82;90.08
66594;DHT22;53450;42.584;23.366;2022-12-16T05:10:54;3.74;90.05
66594;DHT22;53450;42.584;23.366;2022-12-16T05:13:38;3.77;90.10
66594;DHT22;53450;42.584;23.366;2022-12-16T05:16:22;3.79;90.53
66594;DHT22;53450;42.584;23.366;2022-12-16T05:19:06;3.91;90.85
66594;DHT22;53450;42.584;23.366;2022-12-16T05:21:50;4.13;91.07
66594;DHT22;53450;42.584;23.366;2022-12-16T05:24:35;4.25;91.23
66594;DHT22;53450;42.584;23.366;2022-12-16T05:27:19;4.34;91.30
66594;DHT22;53450;42.584;23.366;2022-12-16T05:30:03;4.47;91.16
66594;DHT22;53450;42.584;23.366;2022-12-16T05:32:48;4.36;90.63
66594;DHT22;53450;42.584;23.366;2022-12-16T05:35:32;4.39;90.76
66594;DHT22;53450;42.584;23.366;2022-12-16T05:38:16;4.32;90.60
66594;DHT22;53450;42.584;23.366;2022-12-16T05:41:01;4.17;89.88
66594;DHT22;53450;42.584;23.366;2022-12-16T05:43:45;4.12;90.51
66594;DHT22;53450;42.584;23.366;2022-12-16T05:46:29;4.13;90.25
66594;DHT22;53450;42.584;23.366;2022-12-16T05:49:14;4.03;90.53
66594;DHT22;53450;42.584;23.366;2022-12-16T05:51:58;4.28;90.93
66594;DHT22;53450;42.584;23.366;2022-12-16T05:54:42;4.33;90.62
66594;DHT22;53450;42.584;23.366;2022-12-16T05:57:26;4.28;90.33
66594;DHT22;53450;42.584;23.366;2022-12-16T06:00:11;4.26;90.22
66594;DHT22;53450;42.584;23.366;2022-12-16T06:02:58;4.26;90.45
66594;DHT22;53450;42.584;23.366;2022-12-16T06:05:42;4.33;90.49
66594;DHT22;53450;42.584;23.366;2022-12-16T06:08:26;4.34;90.21
66594;DHT22;53450;42.584;23.366;2022-12-16T06:11:10;4.25;90.38
66594;DHT22;53450;42.584;23.366;2022-12-16T06:13:54;4.23;89.97
66594;DHT22;53450;42.584;23.366;2022-12-16T06:16:38;4.12;89.90
66594;DHT22;53450;42.584;23.366;2022-12-16T06:19:22;4.07;90.07
66594;DHT22;53450;42.584;23.366;2022-12-16T06:22:06;3.98;89.68
66594;DHT22;53450;42.584;23.366;2022-12-16T06:24:50;3.85;89.65
66594;DHT22;53450;42.584;23.366;2022-12-16T06:27:34;3.79;90.24
66594;DHT22;53450;42.584;23.366;2022-12-16T06:30:19;3.89;90.55
66594;DHT22;53450;42.584;23.366;2022-12-16T06:33:03;4.02;90.90
66594;DHT22;53450;42.584;23.366;2022-12-16T06:36:12;4.33;91.12
66594;DHT22;53450;42.584;23.366;2022-12-16T06:38:56;4.37;91.09
66594;DHT22;53450;42.584;23.366;2022-12-16T06:41:40;4.65;91.35
66594;DHT22;53450;42.584;23.366;2022-12-16T06:44:24;4.92;91.27
66594;DHT22;53450;42.584;23.366;2022-12-16T06:47:09;5.07;91.22
66594;DHT22;53450;42.584;23.366;2022-12-16T06:50:18;5.13;91.00
66594;DHT22;53450;42.584;23.366;2022-12-16T06:53:28;5.18;90.87
66594;DHT22;53450;42.584;23.366;2022-12-16T06:56:12;5.25;90.75
66594;DHT22;53450;42.584;23.366;2022-12-16T06:58:56;5.32;90.80
66594;DHT22;53450;42.584;23.366;2022-12-16T07:01:40;5.38;90.84
66594;DHT22;53450;42.584;23.366;2022-12-16T07:04:44;5.54;90.84
66594;DHT22;53450;42.584;23.366;2022-12-16T07:07:29;5.69;90.01
66594;DHT22;53450;42.584;23.366;2022-12-16T07:10:13;5.80;89.92
66594;DHT22;53450;42.584;23.366;2022-12-16T07:12:59;5.84;89.91
66594;DHT22;53450;42.584;23.366;2022-12-16T07:15:44;5.90;89.78
66594;DHT22;53450;42.584;23.366;2022-12-16T07:18:29;5.90;90.28
66594;DHT22;53450;42.584;23.366;2022-12-16T07:21:13;5.87;89.91
66594;DHT22;53450;42.584;23.366;2022-12-16T07:24:23;5.91;88.88
66594;DHT22;53450;42.584;23.366;2022-12-16T07:27:07;5.91;89.45
66594;DHT22;53450;42.584;23.366;2022-12-16T07:29:51;5.90;89.09
66594;DHT22;53450;42.584;23.366;2022-12-16T07:32:35;5.91;89.52
66594;DHT22;53450;42.584;23.366;2022-12-16T07:35:27;5.91;88.88
66594;DHT22;53450;42.584;23.366;2022-12-16T07:38:11;6.02;89.49
66594;DHT22;53450;42.584;23.366;2022-12-16T07:40:55;6.22;89.61
66594;DHT22;53450;42.584;23.366;2022-12-16T07:43:39;6.36;90.02
66594;DHT22;53450;42.584;23.366;2022-12-16T07:46:23;6.35;88.62
66594;DHT22;53450;42.584;23.366;2022-12-16T07:49:08;6.49;89.35
66594;DHT22;53450;42.584;23.366;2022-12-16T07:51:52;6.52;89.39
66594;DHT22;53450;42.584;23.366;2022-12-16T07:54:36;6.52;89.30
66594;DHT22;53450;42.584;23.366;2022-12-16T07:57:24;6.52;88.04
66594;DHT22;53450;42.584;23.366;2022-12-16T08:00:34;6.59;88.60
66594;DHT22;53450;42.584;23.366;2022-12-16T08:03:43;6.70;88.36
66594;DHT22;53450;42.584;23.366;2022-12-16T08:06:27;6.89;88.49
66594;DHT22;53450;42.584;23.366;2022-12-16T08:09:11;7.10;88.05
66594;DHT22;53450;42.584;23.366;2022-12-16T08:11:55;7.05;88.01
66594;DHT22;53450;42.584;23.366;2022-12-16T08:14:39;7.08;87.29
66594;DHT22;53450;42.584;23.366;2022-12-16T08:17:23;7.17;87.89
66594;DHT22;53450;42.584;23.366;2022-12-16T08:20:07;7.18;87.59
66594;DHT22;53450;42.584;23.366;2022-12-16T08:23:17;7.30;87.52
66594;DHT22;53450;42.584;23.366;2022-12-16T08:26:26;7.39;86.72
66594;DHT22;53450;42.584;23.366;2022-12-16T08:29:10;7.66;86.84
66594;DHT22;53450;42.584;23.366;2022-12-16T08:31:54;7.73;86.48
66594;DHT22;53450;42.584;23.366;2022-12-16T08:34:38;7.73;86.56
66594;DHT22;53450;42.584;23.366;2022-12-16T08:37:23;7.86;86.44
66594;DHT22;53450;42.584;23.366;2022-12-16T08:40:07;7.83;86.22
66594;DHT22;53450;42.584;23.366;2022-12-16T08:42:51;8.03;85.87
66594;DHT22;53450;42.584;23.366;2022-12-16T08:45:52;8.45;84.68
66594;DHT22;53450;42.584;23.366;2022-12-16T08:48:36;8.76;83.56
66594;DHT22;53450;42.584;23.366;2022-12-16T08:51:21;8.82;82.99
66594;DHT22;53450;42.584;23.366;2022-12-16T08:54:05;9.00;82.48
66594;DHT22;53450;42.584;23.366;2022-12-16T08:56:50;8.98;82.93
66594;DHT22;53450;42.584;23.366;2022-12-16T08:59:34;8.79;83.37
66594;DHT22;53450;42.584;23.366;2022-12-16T09:02:18;8.72;83.07
66594;DHT22;53450;42.584;23.366;2022-12-16T09:05:03;8.68;83.66
66594;DHT22;53450;42.584;23.366;2022-12-16T09:07:47;8.65;83.95
66594;DHT22;53450;42.584;23.366;2022-12-16T09:10:31;8.64;84.40
66594;DHT22;53450;42.584;23.366;2022-12-16T09:13:15;8.67;83.54
66594;DHT22;53450;42.584;23.366;2022-12-16T09:16:05;8.69;83.96
66594;DHT22;53450;42.584;23.366;2022-12-16T09:18:49;8.86;83.72
66594;DHT22;53450;42.584;23.366;2022-12-16T09:21:36;9.03;83.69
66594;DHT22;53450;42.584;23.366;2022-12-16T09:24:20;9.02;83.50
66594;DHT22;53450;42.584;23.366;2022-12-16T09:27:04;9.16;83.27
66594;DHT22;53450;42.584;23.366;2022-12-16T09:29:49;9.17;83.55
66594;DHT22;53450;42.584;23.366;2022-12-16T09:32:33;9.52;82.65
66594;DHT22;53450;42.584;23.366;2022-12-16T09:35:17;9.78;81.68
66594;DHT22;53450;42.584;23.366;2022-12-16T09:38:01;9.82;80.47
66594;DHT22;53450;42.584;23.366;2022-12-16T09:40:45;9.58;81.72
66594;DHT22;53450;42.584;23.366;2022-12-16T09:46:51;9.43;81.86
66594;DHT22;53450;42.584;23.366;2022-12-16T09:49:46;9.68;81.55
66594;DHT22;53450;42.584;23.366;2022-12-16T09:52:41;9.85;80.35
66594;DHT22;53450;42.584;23.366;2022-12-16T09:55:35;10.09;80.47
66594;DHT22;53450;42.584;23.366;2022-12-16T09:58:22;11.21;77.48
66594;DHT22;53450;42.584;23.366;2022-12-16T10:01:35;11.42;75.35
66594;DHT22;53450;42.584;23.366;2022-12-16T10:04:50;13.67;68.66
66594;DHT22;53450;42.584;23.366;2022-12-16T10:07:38;14.73;64.58
66594;DHT22;53450;42.584;23.366;2022-12-16T10:13:41;15.57;60.76
66594;DHT22;53450;42.584;23.366;2022-12-16T10:16:49;15.80;59.66
66594;DHT22;53450;42.584;23.366;2022-12-16T10:22:26;16.05;58.39
66594;DHT22;53450;42.584;23.366;2022-12-16T10:25:17;15.94;59.86
66594;DHT22;53450;42.584;23.366;2022-12-16T10:31:16;13.99;65.62
66594;DHT22;53450;42.584;23.366;2022-12-16T10:34:01;12.61;69.67
66594;DHT22;53450;42.584;23.366;2022-12-16T10:36:46;12.56;70.04
66594;DHT22;53450;42.584;23.366;2022-12-16T10:39:57;12.35;71.30
66594;DHT22;53450;42.584;23.366;2022-12-16T10:43:02;11.89;72.87
66594;DHT22;53450;42.584;23.366;2022-12-16T10:45:49;12.24;71.59
66594;DHT22;53450;42.584;23.366;2022-12-16T10:49:00;12.79;70.75
66594;DHT22;53450;42.584;23.366;2022-12-16T10:52:12;15.31;61.88
66594;DHT22;53450;42.584;23.366;2022-12-16T10:55:11;16.05;59.57
66594;DHT22;53450;42.584;23.366;2022-12-16T10:58:19;16.63;57.23
66594;DHT22;53450;42.584;23.366;2022-12-16T11:01:22;16.97;56.93
66594;DHT22;53450;42.584;23.366;2022-12-16T11:04:29;16.84;56.75
66594;DHT22;53450;42.584;23.366;2022-12-16T11:07:30;16.68;57.22
66594;DHT22;53450;42.584;23.366;2022-12-16T11:13:31;16.92;55.99
66594;DHT22;53450;42.584;23.366;2022-12-16T11:16:23;16.99;56.26
66594;DHT22;53450;42.584;23.366;2022-12-16T11:19:22;17.07;55.09
66594;DHT22;53450;42.584;23.366;2022-12-16T11:25:20;17.03;56.30
66594;DHT22;53450;42.584;23.366;2022-12-16T11:28:16;17.02;54.87
66594;DHT22;53450;42.584;23.366;2022-12-16T11:31:05;16.99;56.10
66594;DHT22;53450;42.584;23.366;2022-12-16T11:33:53;17.14;55.90
66594;DHT22;53450;42.584;23.366;2022-12-16T11:36:38;16.84;56.43
66594;DHT22;53450;42.584;23.366;2022-12-16T11:39:26;16.83;56.08
66594;DHT22;53450;42.584;23.366;2022-12-16T11:42:18;16.86;56.65
66594;DHT22;53450;42.584;23.366;2022-12-16T11:45:05;16.82;56.79
66594;DHT22;53450;42.584;23.366;2022-12-16T11:47:53;16.99;55.63
66594;DHT22;53450;42.584;23.366;2022-12-16T11:50:50;16.80;57.22
66594;DHT22;53450;42.584;23.366;2022-12-16T11:53:48;16.80;56.17
66594;DHT22;53450;42.584;23.366;2022-12-16T11:56:38;16.80;56.73
66594;DHT22;53450;42.584;23.366;2022-12-16T11:59:31;16.66;57.62
66594;DHT22;53450;42.584;23.366;2022-12-16T12:02:29;16.72;56.68
66594;DHT22;53450;42.584;23.366;2022-12-16T12:05:15;16.76;56.58
66594;DHT22;53450;42.584;23.366;2022-12-16T12:08:12;16.79;56.86
66594;DHT22;53450;42.584;23.366;2022-12-16T12:11:12;16.96;55.89
66594;DHT22;53450;42.584;23.366;2022-12-16T12:17:28;16.79;57.23
66594;DHT22;53450;42.584;23.366;2022-12-16T12:27:36;17.00;55.97
66594;DHT22;53450;42.584;23.366;2022-12-16T12:33:11;16.77;56.73
66594;DHT22;53450;42.584;23.366;2022-12-16T12:36:07;16.76;57.37
66594;DHT22;53450;42.584;23.366;2022-12-16T12:42:43;16.69;57.44
66594;DHT22;53450;42.584;23.366;2022-12-16T12:45:40;16.86;56.03
66594;DHT22;53450;42.584;23.366;2022-12-16T12:48:27;16.82;56.39
66594;DHT22;53450;42.584;23.366;2022-12-16T12:54:36;16.75;57.46
66594;DHT22;53450;42.584;23.366;2022-12-16T12:57:25;16.72;57.16
66594;DHT22;53450;42.584;23.366;2022-12-16T13:00:19;16.82;56.50
66594;DHT22;53450;42.584;23.366;2022-12-16T13:05:48;16.99;55.38
66594;DHT22;53450;42.584;23.366;2022-12-16T13:11:21;16.79;56.79
66594;DHT22;53450;42.584;23.366;2022-12-16T13:17:18;16.86;55.91
66594;DHT22;53450;42.584;23.366;2022-12-16T13:20:32;16.93;55.11
66594;DHT22;53450;42.584;23.366;2022-12-16T13:26:15;17.02;55.16
66594;DHT22;53450;42.584;23.366;2022-12-16T13:29:24;16.82;55.80
66594;DHT22;53450;42.584;23.366;2022-12-16T13:37:53;16.62;56.34
66594;DHT22;53450;42.584;23.366;2022-12-16T13:40:54;16.66;55.86
66594;DHT22;53450;42.584;23.366;2022-12-16T13:43:53;16.68;56.35
66594;DHT22;53450;42.584;23.366;2022-12-16T13:49:47;16.63;56.42
66594;DHT22;53450;42.584;23.366;2022-12-16T13:55:58;16.51;56.61
66594;DHT22;53450;42.584;23.366;2022-12-16T13:58:47;16.53;57.28
66594;DHT22;53450;42.584;23.366;2022-12-16T14:01:57;16.51;56.46
66594;DHT22;53450;42.584;23.366;2022-12-16T14:04:52;16.44;57.74
66594;DHT22;53450;42.584;23.366;2022-12-16T14:07:38;16.26;57.84
66594;DHT22;53450;42.584;23.366;2022-12-16T14:10:27;16.20;58.36
66594;DHT22;53450;42.584;23.366;2022-12-16T14:14:03;16.20;58.42
66594;DHT22;53450;42.584;23.366;2022-12-16T14:17:02;16.26;57.53
66594;DHT22;53450;42.584;23.366;2022-12-16T14:20:02;16.29;57.81
66594;DHT22;53450;42.584;23.366;2022-12-16T14:23:11;16.34;56.85
66594;DHT22;53450;42.584;23.366;2022-12-16T14:26:02;16.14;58.30
66594;DHT22;53450;42.584;23.366;2022-12-16T14:28:47;16.10;58.19
66594;DHT22;53450;42.584;23.366;2022-12-16T14:31:36;16.15;57.73
66594;DHT22;53450;42.584;23.366;2022-12-16T14:34:23;16.18;57.79
66594;DHT22;53450;42.584;23.366;2022-12-16T14:37:14;16.20;57.51
66594;DHT22;53450;42.584;23.366;2022-12-16T14:39:59;16.20;57.37
66594;DHT22;53450;42.584;23.366;2022-12-16T14:42:50;16.08;57.77
66594;DHT22;53450;42.584;23.366;2022-12-16T14:45:36;16.01;58.12
66594;DHT22;53450;42.584;23.366;2022-12-16T14:48:37;16.08;57.78
66594;DHT22;53450;42.584;23.366;2022-12-16T14:57:15;15.93;57.81
66594;DHT22;53450;42.584;23.366;2022-12-16T15:00:11;15.90;57.73
66594;DHT22;53450;42.584;23.366;2022-12-16T15:05:49;15.94;57.85
66594;DHT22;53450;42.584;23.366;2022-12-16T15:09:03;15.91;57.47
66594;DHT22;53450;42.584;23.366;2022-12-16T15:11:51;16.20;56.39
66594;DHT22;53450;42.584;23.366;2022-12-16T15:14:38;16.08;57.05
66594;DHT22;53450;42.584;23.366;2022-12-16T15:17:28;16.08;57.50
66594;DHT22;53450;42.584;23.366;2022-12-16T15:20:16;16.05;57.00
66594;DHT22;53450;42.584;23.366;2022-12-16T15:23:00;16.05;56.67
66594;DHT22;53450;42.584;23.366;2022-12-16T15:25:56;16.01;56.97
66594;DHT22;53450;42.584;23.366;2022-12-16T15:28:42;16.01;57.37
66594;DHT22;53450;42.584;23.366;2022-12-16T15:31:36;16.00;56.33
66594;DHT22;53450;42.584;23.366;2022-12-16T15:34:51;16.17;56.04
66594;DHT22;53450;42.584;23.366;2022-12-16T15:37:37;16.21;55.71
66594;DHT22;53450;42.584;23.366;2022-12-16T15:40:30;16.10;56.52
66594;DHT22;53450;42.584;23.366;2022-12-16T15:46:27;16.04;56.54
66594;DHT22;53450;42.584;23.366;2022-12-16T15:49:22;16.03;56.59
66594;DHT22;53450;42.584;23.366;2022-12-16T15:55:36;16.14;56.28
66594;DHT22;53450;42.584;23.366;2022-12-16T15:58:27;16.15;55.43
66594;DHT22;53450;42.584;23.366;2022-12-16T16:01:14;16.07;56.06
66594;DHT22;53450;42.584;23.366;2022-12-16T16:03:59;16.14;55.37
66594;DHT22;53450;42.584;23.366;2022-12-16T16:06:52;16.21;55.24
66594;DHT22;53450;42.584;23.366;2022-12-16T16:09:38;16.15;55.36
66594;DHT22;53450;42.584;23.366;2022-12-16T16:12:23;16.13;55.56
66594;DHT22;53450;42.584;23.366;2022-12-16T16:15:11;16.14;55.68
66594;DHT22;53450;42.584;23.366;2022-12-16T16:17:58;16.22;55.26
66594;DHT22;53450;42.584;23.366;2022-12-16T16:20:44;16.08;55.56
66594;DHT22;53450;42.584;23.366;2022-12-16T16:23:31;16.05;55.72
66594;DHT22;53450;42.584;23.366;2022-12-16T16:26:17;16.13;54.98
66594;DHT22;53450;42.584;23.366;2022-12-16T16:29:03;15.84;56.65
66594;DHT22;53450;42.584;23.366;2022-12-16T16:31:47;14.43;61.85
66594;DHT22;53450;42.584;23.366;2022-12-16T16:34:31;14.40;60.82
66594;DHT22;53450;42.584;23.366;2022-12-16T16:37:18;14.01;63.41
66594;DHT22;53450;42.584;23.366;2022-12-16T16:43:07;12.89;67.10
66594;DHT22;53450;42.584;23.366;2022-12-16T16:45:53;12.62;67.70
66594;DHT22;53450;42.584;23.366;2022-12-16T16:48:39;13.23;65.75
66594;DHT22;53450;42.584;23.366;2022-12-16T16:51:23;13.00;66.66
66594;DHT22;53450;42.584;23.366;2022-12-16T16:54:08;13.62;64.12
66594;DHT22;53450;42.584;23.366;2022-12-16T16:56:52;14.78;60.14
66594;DHT22;53450;42.584;23.366;2022-12-16T16:59:37;15.16;58.98
66594;DHT22;53450;42.584;23.366;2022-12-16T17:02:22;15.43;57.50
66594;DHT22;53450;42.584;23.366;2022-12-16T17:05:08;15.02;58.99
66594;DHT22;53450;42.584;23.366;2022-12-16T17:07:53;15.43;57.78
66594;DHT22;53450;42.584;23.366;2022-12-16T17:10:38;15.63;56.93
66594;DHT22;53450;42.584;23.366;2022-12-16T17:13:22;16.03;55.59
66594;DHT22;53450;42.584;23.366;2022-12-16T17:16:09;15.97;56.08
66594;DHT22;53450;42.584;23.366;2022-12-16T17:18:54;15.89;56.21
66594;DHT22;53450;42.584;23.366;2022-12-16T17:21:38;15.73;56.69
66594;DHT22;53450;42.584;23.366;2022-12-16T17:24:23;16.08;55.57
66594;DHT22;53450;42.584;23.366;2022-12-16T17:29:57;15.87;56.19
66594;DHT22;53450;42.584;23.366;2022-12-16T17:32:42;15.86;56.39
66594;DHT22;53450;42.584;23.366;2022-12-16T17:35:26;15.90;56.38
66594;DHT22;53450;42.584;23.366;2022-12-16T17:38:21;15.77;57.42
66594;DHT22;53450;42.584;23.366;2022-12-16T17:41:06;15.87;56.68
66594;DHT22;53450;42.584;23.366;2022-12-16T17:43:52;15.91;56.57
66594;DHT22;53450;42.584;23.366;2022-12-16T17:46:36;15.80;56.87
66594;DHT22;53450;42.584;23.366;2022-12-16T17:49:20;15.84;56.77
66594;DHT22;53450;42.584;23.366;2022-12-16T17:52:05;15.90;56.43
66594;DHT22;53450;42.584;23.366;2022-12-16T17:54:49;16.03;55.25
66594;DHT22;53450;42.584;23.366;2022-12-16T17:57:33;15.96;55.86
66594;DHT22;53450;42.584;23.366;2022-12-16T18:00:18;15.98;55.54
66594;DHT22;53450;42.584;23.366;2022-12-16T18:03:02;15.89;56.37
66594;DHT22;53450;42.584;23.366;2022-12-16T18:05:47;15.89;56.09
66594;DHT22;53450;42.584;23.366;2022-12-16T18:08:32;15.84;56.18
66594;DHT22;53450;42.584;23.366;2022-12-16T18:11:16;16.08;54.99
66594;DHT22;53450;42.584;23.366;2022-12-16T18:14:00;16.17;54.70
66594;DHT22;53450;42.584;23.366;2022-12-16T18:16:44;16.13;54.93
66594;DHT22;53450;42.584;23.366;2022-12-16T18:19:29;16.08;54.91
66594;DHT22;53450;42.584;23.366;2022-12-16T18:22:16;16.05;55.09
66594;DHT22;53450;42.584;23.366;2022-12-16T18:25:00;16.03;54.88
66594;DHT22;53450;42.584;23.366;2022-12-16T18:27:45;16.03;54.97
66594;DHT22;53450;42.584;23.366;2022-12-16T18:30:29;16.11;54.71
66594;DHT22;53450;42.584;23.366;2022-12-16T18:33:39;16.18;53.87
66594;DHT22;53450;42.584;23.366;2022-12-16T18:36:48;16.13;54.09
66594;DHT22;53450;42.584;23.366;2022-12-16T18:39:32;15.91;55.17
66594;DHT22;53450;42.584;23.366;2022-12-16T18:42:16;15.84;55.19
66594;DHT22;53450;42.584;23.366;2022-12-16T18:45:00;15.76;55.84
66594;DHT22;53450;42.584;23.366;2022-12-16T18:47:45;15.91;54.60
66594;DHT22;53450;42.584;23.366;2022-12-16T18:50:55;16.03;54.88
66594;DHT22;53450;42.584;23.366;2022-12-16T18:53:39;16.03;54.69
66594;DHT22;53450;42.584;23.366;2022-12-16T18:56:24;15.96;54.67
66594;DHT22;53450;42.584;23.366;2022-12-16T18:59:08;15.83;55.40
66594;DHT22;53450;42.584;23.366;2022-12-16T19:01:53;15.91;54.77
66594;DHT22;53450;42.584;23.366;2022-12-16T19:05:02;16.00;54.38
66594;DHT22;53450;42.584;23.366;2022-12-16T19:07:46;16.00;54.47
66594;DHT22;53450;42.584;23.366;2022-12-16T19:10:31;15.93;54.65
66594;DHT22;53450;42.584;23.366;2022-12-16T19:13:15;16.10;53.83
66594;DHT22;53450;42.584;23.366;2022-12-16T19:15:59;16.01;54.20